createdAt,value
2023-01-30T00:02:19.545Z,13.90
2023-01-30T00:04:47.458Z,14.00
2023-01-30T00:07:22.373Z,14.00
2023-01-30T00:09:56.980Z,14.00
2023-01-30T00:12:25.187Z,13.90
2023-01-30T00:14:58.660Z,13.80
2023-01-30T00:17:34.276Z,13.80
2023-01-30T00:20:02.300Z,13.80
2023-01-30T00:22:30.753Z,13.80
2023-01-30T00:25:03.461Z,13.60
2023-01-30T00:27:37.579Z,13.70
2023-01-30T00:30:12.696Z,13.80
2023-01-30T00:32:40.499Z,13.80
2023-01-30T00:35:11.737Z,13.60
2023-01-30T00:37:45.508Z,13.70
2023-01-30T00:40:14.945Z,13.70
2023-01-30T00:43:03.524Z,13.60
2023-01-30T00:45:51.635Z,13.80
2023-01-30T00:48:25.885Z,13.80
2023-01-30T00:50:56.584Z,13.80
2023-01-30T00:53:24.587Z,13.80
2023-01-30T00:55:54.694Z,13.90
2023-01-30T00:58:28.241Z,13.80
2023-01-30T01:00:56.625Z,13.90
2023-01-30T01:03:24.700Z,14.00
2023-01-30T01:05:58.259Z,13.90
2023-01-30T01:08:28.624Z,13.90
2023-01-30T01:11:00.238Z,13.90
2023-01-30T01:13:31.224Z,14.00
2023-01-30T01:16:01.318Z,14.00
2023-01-30T01:18:34.171Z,13.90
2023-01-30T01:21:02.048Z,13.80
2023-01-30T01:23:36.138Z,13.90
2023-01-30T01:26:10.363Z,13.90
2023-01-30T01:28:44.413Z,13.90
2023-01-30T01:31:13.195Z,13.80
2023-01-30T01:33:43.559Z,13.80
2023-01-30T01:36:13.537Z,13.90
2023-01-30T01:38:47.840Z,13.90
2023-01-30T01:41:18.180Z,13.70
2023-01-30T01:44:01.906Z,13.70
2023-01-30T01:46:36.356Z,13.70
2023-01-30T01:49:13.432Z,13.70
2023-01-30T01:51:47.984Z,13.70
2023-01-30T01:54:20.248Z,13.60
2023-01-30T01:56:51.085Z,13.50
2023-01-30T01:59:29.611Z,13.70
2023-01-30T02:02:01.995Z,13.80
2023-01-30T02:04:51.339Z,13.50
2023-01-30T02:07:22.773Z,13.70
2023-01-30T02:09:52.614Z,13.80
2023-01-30T02:12:21.914Z,13.80
2023-01-30T02:14:54.930Z,13.80
2023-01-30T02:17:28.792Z,13.90
2023-01-30T02:20:12.094Z,14.00
2023-01-30T02:23:23.309Z,14.00
2023-01-30T02:26:43.354Z,14.00
2023-01-30T02:29:52.962Z,14.00
2023-01-30T02:32:28.687Z,13.90
2023-01-30T02:35:05.252Z,14.00
2023-01-30T02:37:55.146Z,14.00
2023-01-30T02:40:44.853Z,13.90
2023-01-30T02:43:17.763Z,13.90
2023-01-30T02:45:54.071Z,13.90
2023-01-30T02:48:28.855Z,13.90
2023-01-30T02:51:00.192Z,13.90
2023-01-30T02:53:32.595Z,13.90
2023-01-30T02:56:00.563Z,13.90
2023-01-30T02:58:33.970Z,14.00
2023-01-30T03:01:44.355Z,14.00
2023-01-30T03:04:31.925Z,14.00
2023-01-30T03:07:26.038Z,13.90
2023-01-30T03:10:07.600Z,13.80
2023-01-30T03:13:03.949Z,13.80
2023-01-30T03:15:36.480Z,13.80
2023-01-30T03:18:05.732Z,13.60
2023-01-30T03:20:38.067Z,13.60
2023-01-30T03:23:05.996Z,13.60
2023-01-30T03:25:43.781Z,13.60
2023-01-30T03:28:14.148Z,13.80
2023-01-30T03:30:45.478Z,13.80
2023-01-30T03:33:19.485Z,13.60
2023-01-30T03:35:51.859Z,13.70
2023-01-30T03:38:20.448Z,13.90
2023-01-30T03:40:54.473Z,13.70
2023-01-30T03:43:25.522Z,13.80
2023-01-30T03:45:53.374Z,13.80
2023-01-30T03:48:24.412Z,13.80
2023-01-30T03:50:56.547Z,14.00
2023-01-30T03:53:27.209Z,14.00
2023-01-30T03:56:10.447Z,14.00
2023-01-30T03:58:38.329Z,14.00
2023-01-30T04:01:09.381Z,14.00
2023-01-30T04:03:40.325Z,14.00
2023-01-30T04:06:12.263Z,14.10
2023-01-30T04:08:45.534Z,14.00
2023-01-30T04:11:13.450Z,14.00
2023-01-30T04:13:47.135Z,13.90
2023-01-30T04:16:17.231Z,14.00
2023-01-30T04:18:45.545Z,13.90
2023-01-30T04:21:23.603Z,13.90
2023-01-30T04:23:51.454Z,13.90
2023-01-30T04:26:25.269Z,13.90
2023-01-30T04:28:53.327Z,13.90
2023-01-30T04:31:21.202Z,13.90
2023-01-30T04:33:57.213Z,13.90
2023-01-30T04:36:26.426Z,13.90
2023-01-30T04:38:57.198Z,14.00
2023-01-30T04:41:31.001Z,13.90
2023-01-30T04:44:01.605Z,13.90
2023-01-30T04:46:29.458Z,14.00
2023-01-30T04:49:00.239Z,13.80
2023-01-30T04:51:34.752Z,13.50
2023-01-30T04:54:02.627Z,13.40
2023-01-30T04:56:30.488Z,13.70
2023-01-30T04:58:58.340Z,13.80
2023-01-30T05:01:32.387Z,13.90
2023-01-30T05:04:20.075Z,14.00
2023-01-30T05:06:59.467Z,13.80
2023-01-30T05:09:33.116Z,13.80
2023-01-30T05:12:01.125Z,13.80
2023-01-30T05:14:32.072Z,13.90
2023-01-30T05:17:02.453Z,13.60
2023-01-30T05:19:30.367Z,13.70
2023-01-30T05:21:59.621Z,13.70
2023-01-30T05:24:30.386Z,13.60
2023-01-30T05:26:58.306Z,13.60
2023-01-30T05:29:28.352Z,13.60
2023-01-30T05:31:56.224Z,13.60
2023-01-30T05:34:27.011Z,13.60
2023-01-30T05:36:54.857Z,13.70
2023-01-30T05:39:26.820Z,13.90
2023-01-30T05:42:08.268Z,13.80
2023-01-30T05:44:36.124Z,13.70
2023-01-30T05:47:04.029Z,13.50
2023-01-30T05:49:31.888Z,13.80
2023-01-30T05:52:02.835Z,14.10
2023-01-30T05:54:32.110Z,14.20
2023-01-30T05:57:00.007Z,14.10
2023-01-30T05:59:27.936Z,14.10
2023-01-30T06:01:55.892Z,14.10
2023-01-30T06:04:29.325Z,14.10
2023-01-30T06:07:00.101Z,14.20
2023-01-30T06:09:32.465Z,14.00
2023-01-30T06:12:16.336Z,13.80
2023-01-30T06:14:47.077Z,13.80
2023-01-30T06:17:20.237Z,13.50
2023-01-30T06:19:48.125Z,13.40
2023-01-30T06:22:15.976Z,13.50
2023-01-30T06:24:45.248Z,13.20
2023-01-30T06:27:14.304Z,13.10
2023-01-30T06:29:42.155Z,13.30
2023-01-30T06:32:13.133Z,13.30
2023-01-30T06:34:40.992Z,13.30
2023-01-30T06:37:08.873Z,13.20
2023-01-30T06:39:36.827Z,13.00
2023-01-30T06:42:07.145Z,12.80
2023-01-30T06:44:35.050Z,12.90
2023-01-30T06:47:11.824Z,13.10
2023-01-30T06:49:39.699Z,13.10
2023-01-30T06:52:10.057Z,13.20
2023-01-30T06:54:37.950Z,13.40
2023-01-30T06:57:07.890Z,13.40
2023-01-30T06:59:35.772Z,13.30
2023-01-30T07:02:03.889Z,13.50
2023-01-30T07:04:31.770Z,13.70
2023-01-30T07:07:00.257Z,13.70
2023-01-30T07:09:30.262Z,13.50
2023-01-30T07:12:12.050Z,13.40
2023-01-30T07:14:39.911Z,13.60
2023-01-30T07:17:07.780Z,13.70
2023-01-30T07:19:35.658Z,13.70
2023-01-30T07:22:09.433Z,13.80
2023-01-30T07:24:41.013Z,13.80
2023-01-30T07:27:14.684Z,13.70
2023-01-30T07:29:42.673Z,13.70
2023-01-30T07:32:27.332Z,13.70
2023-01-30T07:35:01.114Z,13.70
2023-01-30T07:37:32.307Z,13.60
2023-01-30T07:40:07.196Z,13.70
2023-01-30T07:42:36.387Z,13.90
2023-01-30T07:45:06.990Z,14.10
2023-01-30T07:47:34.841Z,14.10
2023-01-30T07:50:06.541Z,14.00
2023-01-30T07:52:40.379Z,14.10
2023-01-30T07:55:08.913Z,14.10
2023-01-30T07:57:38.149Z,14.20
2023-01-30T08:00:21.226Z,14.30
2023-01-30T08:02:52.270Z,14.10
2023-01-30T08:05:20.514Z,13.80
2023-01-30T08:07:48.380Z,13.50
2023-01-30T08:10:17.461Z,13.00
2023-01-30T08:12:46.855Z,12.80
2023-01-30T08:15:14.737Z,12.70
2023-01-30T08:17:42.635Z,12.70
2023-01-30T08:20:11.738Z,12.90
2023-01-30T08:22:39.640Z,12.90
2023-01-30T08:25:08.789Z,13.00
2023-01-30T08:27:36.652Z,13.00
2023-01-30T08:30:09.180Z,12.90
2023-01-30T08:32:43.224Z,13.00
2023-01-30T08:35:11.971Z,13.30
2023-01-30T08:37:40.508Z,13.30
2023-01-30T08:40:09.613Z,13.30
2023-01-30T08:42:45.260Z,13.40
2023-01-30T08:45:14.909Z,13.60
2023-01-30T08:47:42.990Z,13.60
2023-01-30T08:50:11.963Z,13.70
2023-01-30T08:52:40.047Z,13.60
2023-01-30T08:55:14.682Z,13.80
2023-01-30T08:57:45.955Z,14.00
2023-01-30T09:00:31.662Z,13.90
2023-01-30T09:03:00.496Z,14.00
2023-01-30T09:05:34.376Z,13.90
2023-01-30T09:08:05.313Z,13.80
2023-01-30T09:10:33.170Z,13.90
2023-01-30T09:13:01.003Z,13.60
2023-01-30T09:15:33.367Z,13.70
2023-01-30T09:18:01.189Z,13.90
2023-01-30T09:20:34.626Z,14.00
2023-01-30T09:23:05.508Z,14.10
2023-01-30T09:25:33.343Z,14.10
2023-01-30T09:28:01.216Z,14.10
2023-01-30T09:30:29.230Z,13.70
2023-01-30T09:32:58.517Z,13.90
2023-01-30T09:35:29.528Z,13.70
2023-01-30T09:37:58.323Z,13.80
2023-01-30T09:40:29.843Z,13.80
2023-01-30T09:43:27.485Z,13.90
2023-01-30T09:46:19.183Z,14.00
2023-01-30T09:48:59.956Z,13.70
2023-01-30T09:51:45.737Z,13.80
2023-01-30T09:54:25.501Z,14.00
2023-01-30T09:56:58.158Z,13.90
2023-01-30T09:59:52.673Z,13.80
2023-01-30T10:02:53.053Z,14.00
2023-01-30T10:05:25.020Z,13.90
2023-01-30T10:08:21.543Z,13.90
2023-01-30T10:11:04.345Z,13.90
2023-01-30T10:14:11.199Z,14.00
2023-01-30T10:17:12.327Z,14.00
2023-01-30T10:19:57.474Z,14.10
2023-01-30T10:22:42.731Z,14.10
2023-01-30T10:25:30.868Z,14.20
2023-01-30T10:28:04.568Z,14.20
2023-01-30T10:30:45.989Z,14.30
2023-01-30T10:33:21.865Z,14.20
2023-01-30T10:36:00.369Z,14.20
2023-01-30T10:38:34.704Z,14.30
2023-01-30T10:41:09.034Z,14.40
2023-01-30T10:43:42.379Z,14.40
2023-01-30T10:46:24.776Z,14.30
2023-01-30T10:48:58.757Z,14.30
2023-01-30T10:51:37.831Z,14.20
2023-01-30T10:54:26.274Z,14.20
2023-01-30T10:57:03.215Z,14.20
2023-01-30T10:59:52.345Z,14.40
2023-01-30T11:02:26.148Z,14.40
2023-01-30T11:05:00.004Z,14.20
2023-01-30T11:07:31.074Z,14.30
2023-01-30T11:10:01.524Z,14.40
2023-01-30T11:12:32.375Z,14.40
2023-01-30T11:15:02.522Z,14.30
2023-01-30T11:17:45.051Z,14.20
2023-01-30T11:20:18.122Z,14.30
2023-01-30T11:23:09.260Z,14.20
2023-01-30T11:26:05.525Z,14.30
2023-01-30T11:28:48.907Z,14.30
2023-01-30T11:31:38.976Z,14.10
2023-01-30T11:34:16.617Z,14.00
2023-01-30T11:36:47.887Z,14.10
2023-01-30T11:39:48.825Z,14.40
2023-01-30T11:45:18.161Z,14.40
2023-01-30T11:48:03.829Z,14.30
2023-01-30T11:50:41.568Z,14.40
2023-01-30T11:53:30.788Z,14.50
2023-01-30T11:56:19.376Z,14.00
2023-01-30T11:58:58.114Z,14.10
2023-01-30T12:01:29.405Z,14.10
2023-01-30T12:03:58.877Z,14.00
2023-01-30T12:06:33.241Z,13.90
2023-01-30T12:09:27.817Z,13.90
2023-01-30T12:11:55.688Z,13.90
2023-01-30T12:14:39.915Z,14.00
2023-01-30T12:17:18.861Z,14.10
2023-01-30T12:20:04.796Z,13.90
2023-01-30T12:22:39.238Z,14.10
2023-01-30T12:25:14.537Z,14.30
2023-01-30T12:27:53.232Z,14.20
2023-01-30T12:30:29.276Z,14.40
2023-01-30T12:35:51.528Z,14.70
2023-01-30T12:38:35.471Z,14.70
2023-01-30T12:41:19.748Z,14.80
2023-01-30T12:44:00.526Z,14.80
2023-01-30T12:46:55.613Z,14.70
2023-01-30T12:49:35.522Z,14.70
2023-01-30T12:52:29.459Z,14.80
2023-01-30T12:55:09.010Z,14.80
2023-01-30T12:57:47.420Z,14.90
2023-01-30T13:00:42.204Z,15.00
2023-01-30T13:03:24.896Z,15.10
2023-01-30T13:05:57.910Z,15.10
2023-01-30T13:08:40.853Z,15.10
2023-01-30T13:11:23.768Z,14.90
2023-01-30T13:13:57.947Z,14.60
2023-01-30T13:16:36.846Z,14.30
2023-01-30T13:19:14.775Z,14.50
2023-01-30T13:21:48.059Z,14.60
2023-01-30T13:24:23.256Z,14.50
2023-01-30T13:26:53.128Z,14.40
2023-01-30T13:29:32.705Z,14.30
2023-01-30T13:32:03.150Z,14.10
2023-01-30T13:34:36.780Z,14.40
2023-01-30T13:37:12.307Z,14.40
2023-01-30T13:39:45.716Z,14.20
2023-01-30T13:42:26.431Z,14.20
2023-01-30T13:44:55.325Z,14.30
2023-01-30T13:47:39.551Z,14.20
2023-01-30T13:50:38.737Z,14.30
2023-01-30T13:53:15.514Z,14.30
2023-01-30T13:55:50.585Z,14.50
2023-01-30T13:58:44.170Z,14.60
2023-01-30T14:01:13.102Z,14.50
2023-01-30T14:03:47.118Z,14.50
2023-01-30T14:06:37.643Z,14.20
2023-01-30T14:09:26.481Z,14.10
2023-01-30T14:11:59.129Z,14.30
2023-01-30T14:14:36.623Z,14.50
2023-01-30T14:17:18.219Z,14.40
2023-01-30T14:20:00.665Z,14.40
2023-01-30T14:22:56.252Z,14.60
2023-01-30T14:25:51.715Z,14.60
2023-01-30T14:28:52.949Z,14.60
2023-01-30T14:31:46.734Z,14.90
2023-01-30T14:34:46.985Z,14.90
2023-01-30T14:37:54.642Z,15.00
2023-01-30T14:40:43.986Z,14.90
2023-01-30T14:43:53.595Z,14.80
2023-01-30T14:46:54.724Z,14.60
2023-01-30T14:49:31.844Z,14.60
2023-01-30T14:52:00.213Z,14.90
2023-01-30T14:54:45.658Z,15.00
2023-01-30T14:57:33.041Z,15.00
2023-01-30T15:00:16.159Z,15.10
2023-01-30T15:02:48.501Z,14.70
2023-01-30T15:05:19.775Z,14.50
2023-01-30T15:07:54.555Z,14.30
2023-01-30T15:10:46.157Z,14.00
2023-01-30T15:13:42.306Z,13.90
2023-01-30T15:16:25.323Z,13.90
2023-01-30T15:19:30.712Z,13.90
2023-01-30T15:22:17.159Z,13.80
2023-01-30T15:25:32.972Z,14.00
2023-01-30T15:28:17.985Z,14.00
2023-01-30T15:31:02.859Z,13.80
2023-01-30T15:33:32.320Z,13.70
2023-01-30T15:36:00.660Z,13.90
2023-01-30T15:38:31.444Z,14.10
2023-01-30T15:41:02.543Z,14.20
2023-01-30T15:43:58.324Z,14.20
2023-01-30T15:46:36.622Z,14.20
2023-01-30T15:49:30.997Z,14.30
2023-01-30T15:52:02.181Z,14.10
2023-01-30T15:54:35.618Z,14.20
2023-01-30T15:57:06.417Z,14.20
2023-01-30T15:59:38.003Z,14.10
2023-01-30T16:02:14.008Z,14.20
2023-01-30T16:04:47.532Z,14.30
2023-01-30T16:07:16.557Z,14.40
2023-01-30T16:10:06.409Z,14.60
2023-01-30T16:12:36.467Z,14.50
2023-01-30T16:15:30.030Z,14.30
2023-01-30T16:18:05.506Z,13.90
2023-01-30T16:23:38.325Z,13.90
2023-01-30T16:26:14.648Z,14.10
2023-01-30T16:28:46.015Z,14.20
2023-01-30T16:31:19.374Z,14.30
2023-01-30T16:33:52.832Z,14.20
2023-01-30T16:36:43.295Z,14.10
2023-01-30T16:39:30.946Z,14.10
2023-01-30T16:42:26.758Z,14.10
2023-01-30T16:45:21.383Z,14.20
2023-01-30T16:47:49.561Z,14.30
2023-01-30T16:50:23.758Z,14.30
2023-01-30T16:52:56.759Z,14.30
2023-01-30T16:55:26.895Z,14.40
2023-01-30T16:57:57.305Z,14.40
2023-01-30T17:00:34.443Z,14.40
2023-01-30T17:03:05.136Z,14.40
2023-01-30T17:05:42.775Z,14.30
2023-01-30T17:08:48.028Z,14.40
2023-01-30T17:11:34.543Z,14.40
2023-01-30T17:14:19.824Z,14.30
2023-01-30T17:16:48.300Z,14.30
2023-01-30T17:19:16.146Z,14.10
2023-01-30T17:21:50.796Z,14.20
2023-01-30T17:24:22.669Z,14.20
2023-01-30T17:26:52.403Z,14.10
2023-01-30T17:29:41.597Z,13.90
2023-01-30T17:32:11.761Z,14.10
2023-01-30T17:34:47.714Z,14.20
2023-01-30T17:37:21.289Z,14.40
2023-01-30T17:40:03.034Z,14.30
2023-01-30T17:42:30.919Z,14.10
2023-01-30T17:44:59.802Z,14.20
2023-01-30T17:47:30.452Z,14.20
2023-01-30T17:50:01.351Z,14.20
2023-01-30T17:52:33.611Z,14.40
2023-01-30T17:55:01.460Z,14.10
2023-01-30T17:57:43.453Z,14.10
2023-01-30T18:00:22.225Z,14.20
2023-01-30T18:02:50.327Z,14.10
2023-01-30T18:05:21.982Z,14.10
2023-01-30T18:07:51.227Z,14.00
2023-01-30T18:10:21.016Z,14.20
2023-01-30T18:12:49.139Z,14.20
2023-01-30T18:15:23.210Z,14.10
2023-01-30T18:17:59.998Z,14.10
2023-01-30T18:20:27.867Z,14.00
2023-01-30T18:22:57.067Z,14.10
2023-01-30T18:25:40.174Z,14.10
2023-01-30T18:28:08.326Z,14.10
2023-01-30T18:30:36.202Z,13.90
2023-01-30T18:33:12.299Z,13.50
2023-01-30T18:35:40.147Z,13.30
2023-01-30T18:38:09.549Z,13.70
2023-01-30T18:40:39.575Z,13.90
2023-01-30T18:43:07.504Z,13.90
2023-01-30T18:45:35.346Z,14.00
2023-01-30T18:48:03.245Z,13.80
2023-01-30T18:50:31.100Z,13.90
2023-01-30T18:52:59.223Z,14.00
2023-01-30T18:55:31.482Z,14.10
2023-01-30T18:57:59.915Z,14.10
2023-01-30T19:00:36.807Z,14.00
2023-01-30T19:03:07.710Z,14.10
2023-01-30T19:05:37.025Z,13.80
2023-01-30T19:08:05.190Z,13.90
2023-01-30T19:10:34.349Z,14.10
2023-01-30T19:13:19.629Z,14.10
2023-01-30T19:15:50.410Z,13.90
2023-01-30T19:18:18.236Z,13.80
2023-01-30T19:20:55.573Z,13.60
2023-01-30T19:23:29.893Z,13.70
2023-01-30T19:26:00.809Z,13.80
2023-01-30T19:28:32.558Z,13.80
2023-01-30T19:31:05.563Z,13.80
2023-01-30T19:33:33.934Z,14.00
2023-01-30T19:36:09.362Z,14.10
2023-01-30T19:38:40.345Z,14.10
2023-01-30T19:41:17.466Z,14.10
2023-01-30T19:43:56.320Z,14.10
2023-01-30T19:46:25.179Z,14.00
2023-01-30T19:49:03.368Z,13.80
2023-01-30T19:51:33.340Z,13.70
2023-01-30T19:54:04.386Z,13.70
2023-01-30T19:56:34.565Z,13.70
2023-01-30T19:59:05.673Z,13.90
2023-01-30T20:01:37.514Z,13.80
2023-01-30T20:04:08.438Z,13.80
2023-01-30T20:06:38.239Z,13.80
2023-01-30T20:09:07.924Z,13.80
2023-01-30T20:11:41.870Z,13.80
2023-01-30T20:14:11.514Z,13.70
2023-01-30T20:16:39.555Z,13.60
2023-01-30T20:19:11.929Z,13.70
2023-01-30T20:21:39.847Z,13.80
2023-01-30T20:24:12.830Z,13.70
2023-01-30T20:26:42.720Z,13.80
2023-01-30T20:29:11.608Z,13.80
2023-01-30T20:31:40.082Z,13.90
2023-01-30T20:34:10.414Z,13.90
2023-01-30T20:36:40.692Z,13.90
2023-01-30T20:39:20.616Z,14.00
2023-01-30T20:41:52.922Z,14.00
2023-01-30T20:44:21.313Z,13.90
2023-01-30T20:46:49.748Z,14.00
2023-01-30T20:49:19.307Z,14.00
2023-01-30T20:51:48.776Z,14.10
2023-01-30T20:54:21.798Z,14.20
2023-01-30T20:56:53.131Z,14.20
2023-01-30T20:59:23.976Z,14.10
2023-01-30T21:01:54.428Z,14.00
2023-01-30T21:04:25.283Z,14.10
2023-01-30T21:06:58.834Z,14.00
2023-01-30T21:09:26.728Z,14.10
2023-01-30T21:11:56.284Z,13.90
2023-01-30T21:14:26.501Z,14.00
2023-01-30T21:17:02.906Z,14.10
2023-01-30T21:19:30.746Z,14.00
2023-01-30T21:22:06.357Z,13.80
2023-01-30T21:24:40.339Z,13.90
2023-01-30T21:27:12.577Z,13.40
2023-01-30T21:29:52.807Z,12.70
2023-01-30T21:32:20.733Z,12.80
2023-01-30T21:34:50.722Z,12.40
2023-01-30T21:37:58.168Z,12.90
2023-01-30T21:40:46.134Z,13.10
2023-01-30T21:43:15.377Z,13.20
2023-01-30T21:45:43.804Z,13.40
2023-01-30T21:48:16.656Z,13.40
2023-01-30T21:50:50.709Z,13.30
2023-01-30T21:53:18.584Z,13.70
2023-01-30T21:55:53.625Z,13.60
2023-01-30T21:58:25.400Z,13.70
2023-01-30T22:01:04.141Z,13.70
2023-01-30T22:03:32.059Z,13.70
2023-01-30T22:05:59.961Z,13.40
2023-01-30T22:08:30.965Z,13.20
2023-01-30T22:11:08.910Z,12.90
2023-01-30T22:13:44.621Z,12.90
2023-01-30T22:16:17.477Z,13.00
2023-01-30T22:18:46.181Z,13.00
2023-01-30T22:21:16.117Z,12.80
2023-01-30T22:23:52.945Z,12.80
2023-01-30T22:26:22.518Z,12.80
2023-01-30T22:28:56.018Z,12.80
2023-01-30T22:31:25.065Z,13.00
2023-01-30T22:33:58.991Z,12.90
2023-01-30T22:36:31.051Z,12.90
2023-01-30T22:39:01.870Z,12.90
2023-01-30T22:41:36.225Z,12.70
2023-01-30T22:44:14.421Z,12.50
2023-01-30T22:46:42.320Z,12.50
2023-01-30T22:49:11.027Z,12.50
2023-01-30T22:51:41.120Z,12.60
2023-01-30T22:54:11.523Z,12.70
2023-01-30T22:56:51.345Z,13.00
2023-01-30T22:59:22.962Z,13.00
2023-01-30T23:01:59.071Z,13.00
2023-01-30T23:04:27.154Z,13.00
2023-01-30T23:07:05.120Z,12.60
2023-01-30T23:09:35.654Z,12.60
2023-01-30T23:12:29.084Z,12.70
2023-01-30T23:14:58.288Z,12.80
2023-01-30T23:17:43.888Z,12.90
2023-01-30T23:20:12.581Z,12.80
2023-01-30T23:22:43.206Z,12.80
2023-01-30T23:25:11.111Z,12.90
2023-01-30T23:27:52.348Z,12.70
2023-01-30T23:30:21.792Z,12.90
2023-01-30T23:32:49.647Z,12.60
2023-01-30T23:35:18.141Z,12.50
2023-01-30T23:38:11.702Z,12.70
2023-01-30T23:40:39.890Z,12.70
2023-01-30T23:43:11.771Z,12.60
2023-01-30T23:45:53.894Z,12.60
2023-01-30T23:48:21.754Z,12.80
2023-01-30T23:50:49.717Z,12.70
2023-01-30T23:53:22.747Z,12.60
2023-01-30T23:55:56.869Z,12.60
2023-01-30T23:58:33.926Z,12.60
